Time;durP1;ratioP1;P1;durP2;ratioP2;P2;SDS_P1;SDS_P2;PMS_P1;PMS_P2;Temp;Humidity;BMP_temperature;BMP_pressure;BME280_temperature;BME280_humidity;BME280_pressure;Samples;Min_cycle;Max_cycle;Signal;HPM_P1;HPM_P2
2021/11/24 00:00:14;;;;;;;12.82;10.65;;;0.60;99.90;;;;;;5069589;28;20219;-85
2021/11/24 00:02:41;;;;;;;12.73;11.35;;;0.60;99.90;;;;;;5054492;28;20583;-86
2021/11/24 00:05:09;;;;;;;13.23;10.38;;;0.60;99.90;;;;;;5040483;28;20196;-86
2021/11/24 00:07:38;;;;;;;16.52;12.80;;;0.50;99.90;;;;;;5045726;28;20202;-86
2021/11/24 00:10:06;;;;;;;16.55;11.43;;;0.40;99.90;;;;;;5066233;28;20211;-85
2021/11/24 00:12:32;;;;;;;16.00;12.05;;;0.40;99.90;;;;;;5063860;28;20201;-86
2021/11/24 00:14:59;;;;;;;17.52;11.63;;;0.40;99.90;;;;;;5035633;28;20220;-86
2021/11/24 00:17:26;;;;;;;14.95;10.98;;;0.40;99.90;;;;;;5041162;28;20196;-86
2021/11/24 00:19:53;;;;;;;16.52;11.30;;;0.40;99.90;;;;;;5068541;22;20231;-85
2021/11/24 00:22:21;;;;;;;12.38;11.02;;;0.50;99.90;;;;;;5064251;28;20198;-86
2021/11/24 00:24:48;;;;;;;15.32;11.45;;;0.50;99.90;;;;;;5068223;28;20206;-85
2021/11/24 00:27:15;;;;;;;14.98;12.38;;;0.50;99.90;;;;;;5056408;28;20190;-85
2021/11/24 00:29:41;;;;;;;16.10;12.15;;;0.40;99.90;;;;;;5053499;28;20681;-86
2021/11/24 00:32:08;;;;;;;14.68;11.30;;;0.40;99.90;;;;;;5034290;28;20236;-86
2021/11/24 00:34:35;;;;;;;13.20;10.65;;;0.40;99.90;;;;;;5042009;28;20215;-85
2021/11/24 00:37:02;;;;;;;17.25;12.52;;;0.40;99.90;;;;;;5049075;28;20201;-85
2021/11/24 00:39:30;;;;;;;16.02;11.77;;;0.40;99.90;;;;;;5046526;28;20200;-85
2021/11/24 00:41:57;;;;;;;13.88;11.05;;;0.50;99.90;;;;;;5053542;28;20199;-85
2021/11/24 00:44:24;;;;;;;20.08;11.65;;;0.50;99.90;;;;;;5045722;28;20203;-85
2021/11/24 00:46:51;;;;;;;15.88;11.50;;;0.50;99.90;;;;;;5052507;28;20215;-85
2021/11/24 00:49:17;;;;;;;17.02;11.90;;;0.40;99.90;;;;;;5040462;28;20297;-86
2021/11/24 00:51:44;;;;;;;13.02;11.05;;;0.40;99.90;;;;;;5045972;28;20214;-85
2021/11/24 00:54:11;;;;;;;12.38;11.07;;;0.40;99.90;;;;;;5035910;28;20219;-86
2021/11/24 00:56:39;;;;;;;13.80;10.43;;;0.40;99.90;;;;;;5033735;28;20199;-86
2021/11/24 00:59:06;;;;;;;11.23;10.02;;;0.40;99.90;;;;;;5033012;28;20234;-86
2021/11/24 01:01:33;;;;;;;14.52;10.40;;;0.30;99.90;;;;;;5033160;28;20224;-85
2021/11/24 01:04:01;;;;;;;12.95;11.55;;;0.30;99.90;;;;;;5038809;28;20213;-86
2021/11/24 01:06:27;;;;;;;14.32;11.20;;;0.30;99.90;;;;;;5046062;28;20206;-86
2021/11/24 01:08:54;;;;;;;12.32;10.80;;;0.30;99.90;;;;;;5033789;28;20689;-85
2021/11/24 01:11:21;;;;;;;16.08;11.85;;;0.30;99.90;;;;;;5032915;28;20222;-86
2021/11/24 01:13:50;;;;;;;11.23;10.05;;;0.20;99.90;;;;;;5032236;28;20199;-86
2021/11/24 01:16:16;;;;;;;21.65;12.55;;;0.20;99.90;;;;;;5032519;28;20599;-86
2021/11/24 01:18:44;;;;;;;13.90;11.80;;;0.20;99.90;;;;;;5033227;28;20203;-85
2021/11/24 01:21:10;;;;;;;17.08;11.75;;;0.10;99.90;;;;;;5034847;28;20235;-86
2021/11/24 01:23:37;;;;;;;14.93;13.18;;;0.00;99.90;;;;;;5032113;28;20235;-86
2021/11/24 01:26:04;;;;;;;15.93;11.68;;;0.00;99.90;;;;;;5033322;28;20214;-86
2021/11/24 01:28:31;;;;;;;16.95;11.88;;;0.00;99.90;;;;;;5033270;28;20202;-86
2021/11/24 01:30:59;;;;;;;15.00;12.00;;;0.00;99.90;;;;;;5034677;28;20215;-86
2021/11/24 01:33:26;;;;;;;17.42;12.77;;;-0.10;99.90;;;;;;5033093;28;20676;-85
2021/11/24 01:35:53;;;;;;;23.33;13.18;;;-0.10;99.90;;;;;;5032329;28;20226;-85
2021/11/24 01:41:53;;;;;;;17.40;13.70;;;-0.20;99.90;;;;;;5230191;22;20244;-84
2021/11/24 01:44:21;;;;;;;17.73;14.50;;;-0.30;99.90;;;;;;5062036;28;20191;-84
2021/11/24 01:46:54;;;;;;;17.58;12.40;;;-0.30;99.90;;;;;;5057504;28;20260;-84
2021/11/24 01:49:22;;;;;;;15.82;12.48;;;-0.30;99.90;;;;;;5053477;28;20635;-83
2021/11/24 01:51:50;;;;;;;17.58;13.48;;;-0.40;99.90;;;;;;5035371;28;20695;-83
2021/11/24 01:54:17;;;;;;;15.85;12.57;;;-0.40;99.90;;;;;;5044996;28;20227;-83
2021/11/24 01:56:45;;;;;;;19.02;13.55;;;-0.50;99.90;;;;;;5038371;28;20207;-84
2021/11/24 01:59:13;;;;;;;22.75;15.85;;;-0.50;99.90;;;;;;5038167;28;20229;-83
2021/11/24 02:01:41;;;;;;;19.00;14.73;;;-0.50;99.90;;;;;;5052837;28;20207;-84
2021/11/24 02:04:10;;;;;;;18.83;12.80;;;-0.50;99.90;;;;;;5054147;28;20203;-84
2021/11/24 02:06:37;;;;;;;15.00;12.07;;;-0.50;99.90;;;;;;5054839;28;20218;-84
2021/11/24 02:09:05;;;;;;;17.98;13.80;;;-0.50;99.90;;;;;;5048445;28;20209;-84
2021/11/24 02:11:34;;;;;;;13.63;12.10;;;-0.50;99.90;;;;;;5052530;28;20229;-84
2021/11/24 02:14:01;;;;;;;15.48;11.00;;;-0.50;99.90;;;;;;5049075;28;20195;-84
2021/11/24 02:16:28;;;;;;;16.85;12.00;;;-0.50;99.90;;;;;;5048378;28;20202;-84
2021/11/24 02:18:55;;;;;;;14.35;10.88;;;-0.60;99.90;;;;;;5054200;28;20196;-84
2021/11/24 02:21:23;;;;;;;16.52;12.15;;;-0.60;99.90;;;;;;5048765;28;20313;-85
2021/11/24 02:23:50;;;;;;;15.23;11.82;;;-0.60;99.90;;;;;;5033117;28;20205;-83
2021/11/24 02:26:17;;;;;;;17.77;11.48;;;-0.50;99.90;;;;;;5039897;28;20203;-84
2021/11/24 02:28:44;;;;;;;12.55;11.25;;;-0.50;99.90;;;;;;5039503;28;20207;-84
2021/11/24 02:31:19;;;;;;;13.30;11.88;;;-0.50;99.90;;;;;;5033171;28;20232;-84
2021/11/24 02:33:49;;;;;;;16.63;10.57;;;-0.50;99.90;;;;;;5033315;28;20202;-84
2021/11/24 02:36:16;;;;;;;16.20;10.57;;;-0.50;99.90;;;;;;5032959;28;20300;-85
2021/11/24 02:38:44;;;;;;;13.68;10.88;;;-0.50;99.90;;;;;;5033080;28;20587;-84
2021/11/24 02:41:11;;;;;;;13.02;11.73;;;-0.60;99.90;;;;;;5032099;28;20231;-84
2021/11/24 02:43:38;;;;;;;14.25;10.80;;;-0.60;99.90;;;;;;5032924;28;20201;-85
2021/11/24 02:46:05;;;;;;;16.17;10.77;;;-0.60;99.90;;;;;;5032847;28;20205;-85
2021/11/24 02:48:32;;;;;;;14.88;11.52;;;-0.70;99.90;;;;;;5033185;28;20682;-84
2021/11/24 02:50:59;;;;;;;14.57;11.43;;;-0.70;99.90;;;;;;5032257;28;20218;-84
2021/11/24 02:53:26;;;;;;;14.77;10.95;;;-0.70;99.90;;;;;;5032986;28;20267;-84
2021/11/24 02:55:54;;;;;;;14.45;10.80;;;-0.80;99.90;;;;;;5032881;28;20249;-85
2021/11/24 02:58:21;;;;;;;21.73;11.50;;;-0.70;99.90;;;;;;5033043;28;20195;-85
2021/11/24 03:00:49;;;;;;;16.40;10.38;;;-0.70;99.90;;;;;;5031992;28;20591;-84
2021/11/24 03:03:16;;;;;;;15.98;11.43;;;-0.80;99.90;;;;;;5045178;28;20203;-84
2021/11/24 03:05:43;;;;;;;14.40;11.40;;;-0.70;99.90;;;;;;5033628;28;20195;-84
2021/11/24 03:08:10;;;;;;;17.70;12.35;;;-0.70;99.90;;;;;;5038821;28;20207;-85
2021/11/24 03:10:37;;;;;;;15.30;11.73;;;-0.60;99.90;;;;;;5037520;28;20219;-84
2021/11/24 03:13:06;;;;;;;20.13;12.60;;;-0.50;99.90;;;;;;5039054;28;20241;-84
2021/11/24 03:15:33;;;;;;;13.57;11.43;;;-0.50;99.90;;;;;;5040550;28;20210;-84
2021/11/24 03:18:00;;;;;;;16.35;12.40;;;-0.50;99.90;;;;;;5039662;28;20577;-85
2021/11/24 03:20:28;;;;;;;13.73;11.10;;;-0.60;99.90;;;;;;5051769;28;20309;-84
2021/11/24 03:22:56;;;;;;;15.88;11.80;;;-0.60;99.90;;;;;;5037491;28;20207;-84
2021/11/24 03:25:23;;;;;;;12.90;11.30;;;-0.60;99.90;;;;;;5038111;28;20203;-84
2021/11/24 03:27:51;;;;;;;15.65;11.65;;;-0.40;99.90;;;;;;5036868;28;20210;-84
2021/11/24 03:30:21;;;;;;;12.50;11.07;;;-0.50;99.90;;;;;;5037134;28;20225;-85
2021/11/24 03:32:49;;;;;;;17.52;12.40;;;-0.50;99.90;;;;;;5047950;28;20675;-85
2021/11/24 03:35:18;;;;;;;14.63;10.35;;;-0.50;99.90;;;;;;5049820;28;20210;-84
2021/11/24 03:37:45;;;;;;;13.15;10.90;;;-0.50;99.90;;;;;;5051794;28;20213;-84
2021/11/24 03:40:13;;;;;;;14.27;11.02;;;-0.50;99.90;;;;;;5044025;28;20214;-84
2021/11/24 03:42:44;;;;;;;13.25;11.00;;;-0.60;99.90;;;;;;5038704;28;20214;-84
2021/11/24 03:45:11;;;;;;;12.10;10.77;;;-0.50;99.90;;;;;;5050736;28;20200;-85
2021/11/24 03:47:40;;;;;;;14.15;12.25;;;-0.60;99.90;;;;;;5052335;28;20203;-84
2021/11/24 03:50:08;;;;;;;15.05;12.15;;;-0.50;99.90;;;;;;5052229;28;20209;-85
2021/11/24 03:52:35;;;;;;;12.85;10.20;;;-0.60;99.90;;;;;;5045017;28;20209;-85
2021/11/24 03:55:02;;;;;;;17.58;13.02;;;-0.60;99.90;;;;;;5038528;28;20219;-84
2021/11/24 03:57:28;;;;;;;14.68;10.57;;;-0.50;99.90;;;;;;5037591;28;20205;-84
2021/11/24 03:59:55;;;;;;;14.98;11.73;;;-0.60;99.90;;;;;;5044159;28;20206;-84
2021/11/24 04:02:22;;;;;;;13.45;11.07;;;-0.60;99.90;;;;;;5048167;28;20209;-84
2021/11/24 04:04:50;;;;;;;17.40;11.45;;;-0.70;99.90;;;;;;5038405;28;20201;-85
2021/11/24 04:07:17;;;;;;;17.10;13.82;;;-0.70;99.90;;;;;;5035796;28;20567;-85
2021/11/24 04:09:44;;;;;;;14.98;10.73;;;-0.70;99.90;;;;;;5043420;28;20213;-84
2021/11/24 04:12:10;;;;;;;17.63;11.52;;;-0.70;99.90;;;;;;5047817;28;20229;-85
2021/11/24 04:14:37;;;;;;;17.20;11.20;;;-0.70;99.90;;;;;;5039553;28;20209;-84
2021/11/24 04:17:04;;;;;;;19.63;12.10;;;-0.70;99.90;;;;;;5039252;28;20223;-84
2021/11/24 04:19:31;;;;;;;17.60;11.50;;;-0.80;99.90;;;;;;5054044;28;20198;-84
2021/11/24 04:21:59;;;;;;;16.80;11.35;;;-0.80;99.90;;;;;;5048909;28;20222;-85
2021/11/24 04:24:26;;;;;;;13.30;10.80;;;-0.70;99.90;;;;;;5037882;28;20651;-84
2021/11/24 04:26:53;;;;;;;13.27;11.27;;;-0.60;99.90;;;;;;5049135;28;20202;-84
2021/11/24 04:29:20;;;;;;;13.05;10.95;;;-0.60;99.90;;;;;;5054406;28;20195;-85
2021/11/24 04:31:47;;;;;;;15.27;11.90;;;-0.80;99.90;;;;;;5045328;28;20219;-86
2021/11/24 04:34:14;;;;;;;11.48;9.90;;;-0.80;99.90;;;;;;5038505;28;20205;-85
2021/11/24 04:36:40;;;;;;;11.45;10.23;;;-0.90;99.90;;;;;;5038712;28;20226;-84
2021/11/24 04:39:09;;;;;;;17.75;12.32;;;-0.90;99.90;;;;;;5038669;28;20684;-85
2021/11/24 04:41:36;;;;;;;16.73;10.55;;;-0.90;99.90;;;;;;5035169;28;20234;-85
2021/11/24 04:44:03;;;;;;;12.50;9.80;;;-1.00;99.90;;;;;;5035894;28;20209;-85
2021/11/24 04:46:30;;;;;;;11.77;10.55;;;-1.00;99.90;;;;;;5036499;28;20206;-85
2021/11/24 04:48:57;;;;;;;12.30;9.57;;;-1.00;99.90;;;;;;5035952;28;20199;-85
2021/11/24 04:51:23;;;;;;;13.10;10.85;;;-1.00;99.90;;;;;;5034600;28;20230;-85
2021/11/24 04:53:50;;;;;;;14.70;10.85;;;-1.00;99.90;;;;;;5034430;28;20209;-84
2021/11/24 04:56:19;;;;;;;18.95;12.30;;;-1.00;99.90;;;;;;5034539;28;20234;-85
2021/11/24 04:58:51;;;;;;;14.25;11.30;;;-1.00;99.90;;;;;;5033901;28;20199;-85
2021/11/24 05:01:21;;;;;;;12.55;11.32;;;-1.00;99.90;;;;;;5033588;28;20230;-86
2021/11/24 05:03:49;;;;;;;13.85;10.73;;;-1.00;99.90;;;;;;5043444;28;20202;-85
2021/11/24 05:06:17;;;;;;;13.43;11.85;;;-1.00;99.90;;;;;;5035258;28;20256;-85
2021/11/24 05:08:44;;;;;;;10.70;9.60;;;-1.00;99.90;;;;;;5042498;28;20222;-85
2021/11/24 05:11:13;;;;;;;12.35;10.35;;;-1.00;99.90;;;;;;5036617;28;20222;-86
2021/11/24 05:13:47;;;;;;;15.93;11.25;;;-1.00;99.90;;;;;;5033701;28;20195;-86
2021/11/24 05:16:13;;;;;;;17.30;11.55;;;-1.10;99.90;;;;;;5032822;28;20265;-85
2021/11/24 05:18:46;;;;;;;13.77;12.23;;;-1.10;99.90;;;;;;5033217;28;20293;-85
2021/11/24 05:21:15;;;;;;;11.65;10.43;;;-1.00;99.90;;;;;;5032552;28;20414;-85
2021/11/24 05:23:43;;;;;;;12.02;10.02;;;-1.00;99.90;;;;;;5033511;28;20202;-85
2021/11/24 05:26:10;;;;;;;15.60;11.23;;;-1.00;99.90;;;;;;5033937;28;20286;-86
2021/11/24 05:28:37;;;;;;;16.20;12.80;;;-1.00;99.90;;;;;;5033285;28;20206;-85
2021/11/24 05:31:06;;;;;;;13.95;11.75;;;-1.10;99.90;;;;;;5032869;28;20242;-85
2021/11/24 05:33:34;;;;;;;12.45;10.07;;;-1.10;99.90;;;;;;5013949;28;20210;-85
2021/11/24 05:36:01;;;;;;;15.60;11.70;;;-1.10;99.90;;;;;;5036185;28;20234;-85
2021/11/24 05:38:27;;;;;;;15.07;12.13;;;-1.10;99.90;;;;;;5040040;28;20202;-85
2021/11/24 05:40:54;;;;;;;18.95;12.10;;;-1.10;99.90;;;;;;5048778;28;20245;-85
2021/11/24 05:43:22;;;;;;;15.15;11.93;;;-1.10;99.90;;;;;;5047902;28;20205;-84
2021/11/24 05:46:09;;;;;;;15.98;12.18;;;-1.10;99.90;;;;;;5046181;28;20186;-85
2021/11/24 05:48:38;;;;;;;18.65;12.27;;;-1.20;99.90;;;;;;5041679;28;20242;-86
2021/11/24 05:51:05;;;;;;;12.98;11.57;;;-1.20;99.90;;;;;;5032980;28;20218;-85
2021/11/24 05:53:32;;;;;;;13.35;10.93;;;-1.10;99.90;;;;;;5033495;28;20203;-86
2021/11/24 05:55:59;;;;;;;13.82;11.75;;;-1.20;99.90;;;;;;5034453;28;20211;-85
2021/11/24 05:58:27;;;;;;;17.55;12.57;;;-1.20;99.90;;;;;;5033740;28;20191;-86
2021/11/24 06:00:55;;;;;;;21.30;12.23;;;-1.20;99.90;;;;;;5034583;28;20246;-85
2021/11/24 06:03:22;;;;;;;11.45;10.25;;;-1.20;99.90;;;;;;5034382;28;20213;-85
2021/11/24 06:05:50;;;;;;;13.05;11.27;;;-1.10;99.90;;;;;;5054704;28;20201;-85
2021/11/24 06:08:17;;;;;;;14.25;11.70;;;-1.00;99.90;;;;;;5036578;28;20199;-86
2021/11/24 06:10:45;;;;;;;15.55;12.35;;;-1.00;99.90;;;;;;5035206;28;20317;-86
2021/11/24 06:13:12;;;;;;;17.00;12.55;;;-0.90;99.90;;;;;;5035349;28;20583;-85
2021/11/24 06:15:39;;;;;;;20.10;13.80;;;-1.00;99.90;;;;;;5034622;28;20226;-86
2021/11/24 06:18:07;;;;;;;20.10;14.43;;;-0.90;99.90;;;;;;5016967;28;20200;-86
2021/11/24 06:20:34;;;;;;;23.85;15.98;;;-0.90;99.90;;;;;;5024258;28;20255;-86
2021/11/24 06:23:02;;;;;;;18.05;14.05;;;-0.90;99.90;;;;;;5040701;28;20674;-85
2021/11/24 06:25:29;;;;;;;18.27;13.93;;;-0.90;99.90;;;;;;5062311;23;20228;-89
2021/11/24 06:27:55;;;;;;;18.20;12.20;;;-0.90;99.90;;;;;;5055371;28;20206;-89
2021/11/24 06:30:24;;;;;;;17.40;14.05;;;-1.00;99.90;;;;;;5053526;28;20205;-89
2021/11/24 06:32:50;;;;;;;18.80;14.70;;;-1.00;99.90;;;;;;5054412;28;20206;-89
2021/11/24 06:35:17;;;;;;;14.88;13.20;;;-1.00;99.90;;;;;;5060333;28;20236;-89
2021/11/24 06:37:45;;;;;;;16.05;12.95;;;-1.00;99.90;;;;;;5065790;28;20600;-89
2021/11/24 06:40:14;;;;;;;17.80;12.60;;;-1.10;99.90;;;;;;5047556;28;20289;-88
2021/11/24 06:42:40;;;;;;;17.08;12.80;;;-1.20;99.90;;;;;;5051419;28;20205;-89
2021/11/24 06:45:08;;;;;;;18.63;13.88;;;-1.20;99.90;;;;;;5047335;28;20218;-89
2021/11/24 06:47:35;;;;;;;18.48;13.10;;;-1.10;99.90;;;;;;5057897;28;20598;-86
2021/11/24 06:50:03;;;;;;;28.98;14.88;;;-1.10;99.90;;;;;;5059152;28;20182;-84
2021/11/24 06:52:29;;;;;;;21.55;16.88;;;-1.10;99.90;;;;;;5067746;28;20187;-88
2021/11/24 06:54:56;;;;;;;23.85;15.70;;;-1.00;99.90;;;;;;5067819;28;20209;-86
2021/11/24 06:57:24;;;;;;;22.25;15.88;;;-0.90;99.90;;;;;;5068373;28;20237;-85
2021/11/24 06:59:51;;;;;;;24.38;14.90;;;-0.80;99.90;;;;;;5052735;28;20187;-88
2021/11/24 07:02:18;;;;;;;19.65;15.07;;;-0.80;99.90;;;;;;5042963;28;20213;-88
2021/11/24 07:04:44;;;;;;;17.88;14.75;;;-0.90;99.90;;;;;;5048762;28;20211;-87
2021/11/24 07:07:11;;;;;;;20.27;13.60;;;-0.90;99.90;;;;;;5047956;28;20186;-89
2021/11/24 07:09:40;;;;;;;18.17;13.73;;;-0.80;99.90;;;;;;5047096;28;20217;-90
2021/11/24 07:12:10;;;;;;;15.50;13.25;;;-0.70;99.90;;;;;;5045391;28;20272;-88
2021/11/24 07:14:38;;;;;;;22.10;15.25;;;-0.60;99.90;;;;;;5043397;28;20214;-85
2021/11/24 07:17:05;;;;;;;24.90;17.95;;;-0.40;99.90;;;;;;5057041;28;20205;-86
2021/11/24 07:19:32;;;;;;;22.27;14.60;;;-0.20;99.90;;;;;;5049982;28;20207;-87
2021/11/24 07:21:59;;;;;;;19.77;14.13;;;-0.10;99.90;;;;;;5047135;28;20245;-87
2021/11/24 07:24:25;;;;;;;20.85;15.73;;;0.00;99.90;;;;;;5046370;28;20547;-88
2021/11/24 07:26:53;;;;;;;21.08;14.40;;;0.10;99.90;;;;;;5045304;28;20202;-87
2021/11/24 07:29:20;;;;;;;18.05;14.75;;;0.30;99.90;;;;;;5050547;28;20198;-87
2021/11/24 07:31:48;;;;;;;19.77;14.15;;;0.40;99.90;;;;;;5044953;28;20198;-86
2021/11/24 07:34:15;;;;;;;24.25;16.27;;;0.50;99.90;;;;;;5047177;28;20301;-87
2021/11/24 07:36:43;;;;;;;21.27;15.85;;;0.70;99.90;;;;;;5047676;28;20221;-87
2021/11/24 07:39:10;;;;;;;24.83;15.52;;;0.80;99.90;;;;;;5060335;28;20250;-86
2021/11/24 07:41:37;;;;;;;22.23;16.50;;;0.90;99.90;;;;;;5072841;28;20183;-86
2021/11/24 07:44:04;;;;;;;25.35;17.95;;;0.90;99.90;;;;;;5060704;28;20205;-87
2021/11/24 07:46:31;;;;;;;21.92;15.48;;;1.00;99.90;;;;;;5055322;28;20206;-87
2021/11/24 07:48:59;;;;;;;25.58;17.63;;;1.10;99.90;;;;;;5043768;28;20196;-87
2021/11/24 07:51:26;;;;;;;25.48;16.83;;;1.10;99.90;;;;;;5038789;28;20205;-87
2021/11/24 07:53:53;;;;;;;24.65;17.48;;;1.10;99.90;;;;;;5051296;28;20194;-87
2021/11/24 07:56:20;;;;;;;27.08;17.17;;;1.20;99.90;;;;;;5059713;28;20223;-87
2021/11/24 07:58:47;;;;;;;21.58;17.08;;;1.30;99.90;;;;;;5046899;28;20195;-87
2021/11/24 08:01:14;;;;;;;28.75;17.48;;;1.30;99.90;;;;;;5039535;28;20199;-88
2021/11/24 08:03:42;;;;;;;25.67;16.27;;;1.40;99.90;;;;;;5050836;28;20256;-87
2021/11/24 08:06:10;;;;;;;23.27;17.33;;;1.50;99.90;;;;;;5061052;28;20264;-87
2021/11/24 08:08:37;;;;;;;28.98;18.13;;;1.60;99.90;;;;;;5048054;28;20207;-87
2021/11/24 08:11:04;;;;;;;31.20;20.75;;;1.60;99.90;;;;;;5041047;28;20217;-87
2021/11/24 08:13:31;;;;;;;31.33;23.92;;;1.70;99.90;;;;;;5044973;28;20195;-87
2021/11/24 08:15:58;;;;;;;24.48;18.40;;;1.90;99.90;;;;;;5056381;28;20517;-87
2021/11/24 08:18:25;;;;;;;34.35;17.70;;;1.90;99.90;;;;;;5048557;28;20201;-87
2021/11/24 08:20:52;;;;;;;22.75;15.75;;;2.00;99.90;;;;;;5034973;28;20213;-87
2021/11/24 08:23:20;;;;;;;25.38;16.73;;;2.10;99.90;;;;;;5042284;28;20262;-87
2021/11/24 08:25:48;;;;;;;21.60;17.23;;;2.20;99.90;;;;;;5056333;28;20239;-87
2021/11/24 08:28:15;;;;;;;29.20;18.33;;;2.30;99.90;;;;;;5075026;28;20426;-87
2021/11/24 08:30:42;;;;;;;27.23;17.95;;;2.40;99.90;;;;;;5073948;28;20214;-88
2021/11/24 08:33:09;;;;;;;26.27;17.63;;;2.50;99.90;;;;;;5045666;28;20195;-87
2021/11/24 08:35:35;;;;;;;23.87;17.97;;;2.50;99.90;;;;;;5056557;28;20468;-88
2021/11/24 08:38:02;;;;;;;22.63;16.60;;;2.60;99.90;;;;;;5055931;28;20498;-86
2021/11/24 08:40:30;;;;;;;25.58;17.00;;;2.70;99.90;;;;;;5055289;28;20458;-88
2021/11/24 08:42:58;;;;;;;22.27;16.03;;;2.80;99.90;;;;;;5051087;28;20662;-86
2021/11/24 08:45:25;;;;;;;25.23;17.53;;;2.90;99.90;;;;;;5056115;28;20453;-87
2021/11/24 08:47:52;;;;;;;21.97;15.43;;;3.10;99.90;;;;;;5043435;28;20449;-86
2021/11/24 08:50:20;;;;;;;22.43;15.90;;;3.30;99.90;;;;;;5078076;28;20438;-86
2021/11/24 08:52:48;;;;;;;20.63;16.07;;;3.50;99.90;;;;;;5056084;28;20451;-87
2021/11/24 08:55:16;;;;;;;19.80;16.10;;;3.90;99.90;;;;;;5041870;28;20475;-87
2021/11/24 08:57:45;;;;;;;24.87;16.47;;;4.10;99.90;;;;;;5039062;28;20488;-89
2021/11/24 09:00:15;;;;;;;20.27;15.90;;;4.40;99.90;;;;;;5054864;28;20462;-88
2021/11/24 09:02:42;;;;;;;22.83;15.83;;;4.60;99.90;;;;;;5052047;28;20452;-90
2021/11/24 09:05:09;;;;;;;21.30;16.87;;;4.60;99.90;;;;;;5049421;28;20468;-88
2021/11/24 09:07:37;;;;;;;20.27;15.87;;;4.70;99.90;;;;;;5057509;28;20456;-88
2021/11/24 09:10:06;;;;;;;22.03;15.93;;;4.80;99.90;;;;;;5062018;28;20451;-86
2021/11/24 09:12:33;;;;;;;18.33;15.57;;;4.60;99.90;;;;;;5045205;28;20523;-86
2021/11/24 09:15:01;;;;;;;21.57;15.73;;;4.40;99.90;;;;;;5059833;28;20476;-85
2021/11/24 09:17:27;;;;;;;19.93;14.93;;;4.20;99.90;;;;;;5058180;28;20476;-86
2021/11/24 09:19:54;;;;;;;20.43;16.00;;;4.20;99.90;;;;;;5038891;28;20449;-85
2021/11/24 09:22:27;;;;;;;18.10;14.27;;;4.30;99.90;;;;;;5035109;28;20452;-86
2021/11/24 09:25:35;;;;;;;19.90;15.77;;;4.60;99.90;;;;;;5049767;28;20483;-86
2021/11/24 09:28:08;;;;;;;16.90;13.67;;;4.90;99.90;;;;;;5035620;28;20457;-86
2021/11/24 09:30:36;;;;;;;18.27;15.50;;;5.50;99.90;;;;;;5058569;28;20945;-86
2021/11/24 09:33:03;;;;;;;17.43;15.13;;;5.60;99.90;;;;;;5052090;28;20948;-86
2021/11/24 09:35:31;;;;;;;16.47;14.73;;;6.10;99.90;;;;;;5034118;28;21004;-86
2021/11/24 09:37:58;;;;;;;19.20;15.50;;;6.70;99.90;;;;;;5035169;28;20531;-85
2021/11/24 09:40:25;;;;;;;17.23;14.87;;;6.70;99.90;;;;;;5033713;28;20539;-85
2021/11/24 09:42:57;;;;;;;16.33;14.63;;;6.00;99.90;;;;;;5052407;28;20448;-87
2021/11/24 09:45:25;;;;;;;23.30;17.40;;;5.60;99.90;;;;;;5058050;28;20483;-79
2021/11/24 09:47:56;;;;;;;17.43;15.17;;;5.80;99.90;;;;;;5041109;28;20452;-79
2021/11/24 09:50:26;;;;;;;17.83;14.63;;;6.40;99.90;;;;;;5037307;28;20457;-80
2021/11/24 09:52:55;;;;;;;17.93;14.27;;;6.90;99.90;;;;;;5052357;28;20452;-87
2021/11/24 09:55:22;;;;;;;16.43;14.63;;;7.20;99.90;;;;;;5056183;28;20522;-88
2021/11/24 09:57:50;;;;;;;17.20;14.90;;;6.70;99.90;;;;;;5052557;28;20476;-87
2021/11/24 10:00:16;;;;;;;17.33;14.30;;;6.40;99.90;;;;;;5069076;28;20518;-87
2021/11/24 10:02:44;;;;;;;16.17;14.43;;;5.80;99.90;;;;;;5075985;28;20503;-85
2021/11/24 10:05:12;;;;;;;15.93;13.67;;;6.00;99.90;;;;;;5065763;28;20465;-86
2021/11/24 10:07:42;;;;;;;18.90;15.10;;;6.20;99.90;;;;;;5039459;28;20588;-86
2021/11/24 10:10:10;;;;;;;17.53;14.83;;;6.50;99.90;;;;;;5040621;28;20460;-88
2021/11/24 10:12:37;;;;;;;15.50;13.87;;;6.80;99.90;;;;;;5052965;28;20432;-87
2021/11/24 10:15:05;;;;;;;18.80;15.00;;;6.50;99.90;;;;;;5035038;28;20484;-86
2021/11/24 10:17:31;;;;;;;18.80;14.93;;;6.00;99.90;;;;;;5070447;28;20482;-87
2021/11/24 10:20:00;;;;;;;17.07;14.33;;;5.90;99.90;;;;;;5041721;28;20519;-87
2021/11/24 10:22:28;;;;;;;20.73;15.83;;;5.50;99.90;;;;;;5052986;28;20528;-87
2021/11/24 10:25:07;;;;;;;19.60;14.37;;;5.10;99.90;;;;;;5038950;28;20477;-87
2021/11/24 10:27:37;;;;;;;17.73;14.73;;;5.10;99.90;;;;;;5039025;28;20455;-87
2021/11/24 10:30:06;;;;;;;16.10;12.67;;;5.00;99.90;;;;;;5044777;28;20961;-86
2021/11/24 10:32:33;;;;;;;18.10;12.77;;;4.80;99.90;;;;;;5056546;28;20439;-87
2021/11/24 10:35:00;;;;;;;18.13;13.50;;;4.80;99.90;;;;;;5055612;28;20479;-86
2021/11/24 10:37:28;;;;;;;21.30;14.37;;;4.90;99.90;;;;;;5051763;28;20486;-87
2021/11/24 10:39:59;;;;;;;20.57;16.10;;;4.80;99.90;;;;;;5038443;28;20498;-86
2021/11/24 10:42:32;;;;;;;14.87;12.37;;;4.80;99.90;;;;;;5048039;28;20484;-87
2021/11/24 10:45:07;;;;;;;18.20;14.23;;;4.90;99.90;;;;;;5037861;28;20499;-88
2021/11/24 10:47:48;;;;;;;14.60;12.47;;;4.80;99.90;;;;;;5061386;28;20427;-86
2021/11/24 10:50:19;;;;;;;18.93;14.20;;;5.00;99.90;;;;;;5062959;28;20478;-88
2021/11/24 10:52:48;;;;;;;17.83;12.80;;;5.20;99.90;;;;;;5068479;28;20448;-86
2021/11/24 10:55:17;;;;;;;19.30;14.93;;;5.90;99.90;;;;;;5056648;28;20465;-87
2021/11/24 10:57:46;;;;;;;16.20;13.60;;;6.60;99.90;;;;;;5041409;28;20481;-88
2021/11/24 11:00:15;;;;;;;16.70;12.70;;;6.90;99.90;;;;;;5045572;28;20451;-89
2021/11/24 11:02:44;;;;;;;17.47;14.23;;;6.60;99.90;;;;;;5053312;28;20476;-87
2021/11/24 11:05:16;;;;;;;16.33;14.07;;;6.50;99.90;;;;;;5046449;28;20480;-87
2021/11/24 11:08:01;;;;;;;14.97;13.07;;;6.00;99.90;;;;;;5044455;28;20513;-88
2021/11/24 11:10:30;;;;;;;21.03;13.80;;;5.50;99.90;;;;;;5060675;28;20543;-89
2021/11/24 11:13:00;;;;;;;16.70;13.77;;;5.20;99.90;;;;;;5061396;28;20454;-89
2021/11/24 11:15:31;;;;;;;18.70;13.47;;;5.40;99.90;;;;;;5061973;28;20468;-88
2021/11/24 11:18:10;;;;;;;16.20;13.50;;;5.60;99.90;;;;;;5048137;28;20469;-88
2021/11/24 11:20:41;;;;;;;17.93;13.43;;;5.70;99.90;;;;;;5050519;28;20476;-88
2021/11/24 11:23:16;;;;;;;19.60;13.63;;;5.90;99.90;;;;;;5070767;28;20469;-88
2021/11/24 11:25:46;;;;;;;14.97;13.00;;;6.00;99.90;;;;;;5062279;28;20480;-89
2021/11/24 11:28:14;;;;;;;15.57;13.30;;;6.20;99.90;;;;;;5067750;28;20449;-88
2021/11/24 11:30:44;;;;;;;14.53;12.43;;;8.70;99.90;;;;;;5047446;28;20520;-88
2021/11/24 11:33:13;;;;;;;13.60;12.30;;;11.70;94.40;;;;;;5044431;28;20453;-89
2021/11/24 11:35:41;;;;;;;14.30;12.90;;;12.80;88.20;;;;;;5054036;28;20464;-86
2021/11/24 11:38:10;;;;;;;14.13;12.00;;;14.10;83.20;;;;;;5074120;28;20469;-88
2021/11/24 11:40:38;;;;;;;13.33;11.90;;;15.60;73.80;;;;;;5055369;28;20455;-89
2021/11/24 11:43:07;;;;;;;14.13;12.70;;;14.90;71.30;;;;;;5057564;28;20449;-87
2021/11/24 11:45:35;;;;;;;16.43;12.53;;;15.90;70.00;;;;;;5054702;28;20899;-86
2021/11/24 11:48:05;;;;;;;12.90;11.60;;;16.00;66.90;;;;;;5060001;28;20454;-90
2021/11/24 11:50:54;;;;;;;13.63;12.33;;;17.30;62.80;;;;;;5046357;28;20448;-88
2021/11/24 11:53:25;;;;;;;13.10;11.90;;;16.90;62.70;;;;;;5056243;28;20475;-87
2021/11/24 11:56:13;;;;;;;13.07;11.87;;;16.50;61.70;;;;;;5050351;28;20481;-88
2021/11/24 11:58:58;;;;;;;12.97;11.83;;;18.40;59.10;;;;;;5054780;28;20488;-89
2021/11/24 12:01:28;;;;;;;13.50;12.10;;;16.70;58.50;;;;;;5047166;28;20449;-88
2021/11/24 12:04:12;;;;;;;13.30;11.77;;;17.10;59.10;;;;;;5067522;28;20452;-88
2021/11/24 12:06:42;;;;;;;13.80;12.53;;;18.70;57.40;;;;;;5046584;28;20487;-88
2021/11/24 12:09:28;;;;;;;13.70;12.33;;;19.10;54.80;;;;;;5036498;28;20448;-88
2021/11/24 12:12:18;;;;;;;11.60;10.50;;;18.90;54.20;;;;;;5039739;28;20476;-88
2021/11/24 12:15:00;;;;;;;12.57;11.50;;;19.00;54.60;;;;;;5045114;28;20555;-88
2021/11/24 12:17:44;;;;;;;11.80;10.80;;;18.90;53.10;;;;;;5059285;28;20441;-88
2021/11/24 12:20:46;;;;;;;11.87;10.87;;;17.80;53.10;;;;;;5034521;28;20457;-88
2021/11/24 12:23:25;;;;;;;12.00;10.90;;;15.70;55.90;;;;;;5051920;28;20474;-89
2021/11/24 12:25:55;;;;;;;13.20;11.80;;;14.30;58.30;;;;;;5043883;28;20763;-87
2021/11/24 12:28:23;;;;;;;14.50;13.00;;;13.30;61.10;;;;;;5067674;28;20525;-87
2021/11/24 12:31:07;;;;;;;15.50;13.90;;;13.10;61.70;;;;;;5053960;28;20451;-88
2021/11/24 12:33:52;;;;;;;15.93;13.33;;;12.80;62.90;;;;;;5037264;28;20960;-87
2021/11/24 12:36:24;;;;;;;17.93;13.53;;;13.00;63.20;;;;;;5051275;28;20445;-88
2021/11/24 12:38:52;;;;;;;14.63;13.13;;;12.40;64.30;;;;;;5043802;28;21051;-88
2021/11/24 12:41:24;;;;;;;14.80;12.20;;;13.10;65.20;;;;;;5054431;28;20824;-88